sensor_id;sensor_type;location;lat;lon;timestamp;pressure;altitude;pressure_sealevel;temperature;humidity
65127;BME280;51927;49.080;19.652;2022-09-12T00:00:04;94513.28;;;21.93;41.89
65127;BME280;51927;49.080;19.652;2022-09-12T00:00:09;94504.50;;;21.92;41.95
65127;BME280;51927;49.080;19.652;2022-09-12T00:00:15;94510.63;;;21.93;41.76
65127;BME280;51927;49.080;19.652;2022-09-12T00:00:20;94509.03;;;21.92;41.77
65127;BME280;51927;49.080;19.652;2022-09-12T00:00:27;94501.84;;;21.92;41.72
65127;BME280;51927;49.080;19.652;2022-09-12T00:00:33;94505.28;;;21.93;41.89
65127;BME280;51927;49.080;19.652;2022-09-12T00:00:38;94501.03;;;21.92;41.79
65127;BME280;51927;49.080;19.652;2022-09-12T00:00:43;94505.59;;;21.91;41.82
65127;BME280;51927;49.080;19.652;2022-09-12T00:00:49;94501.03;;;21.92;41.85
65127;BME280;51927;49.080;19.652;2022-09-12T00:01:04;94506.38;;;21.92;41.87
65127;BME280;51927;49.080;19.652;2022-09-12T00:01:10;94498.38;;;21.92;41.87
65127;BME280;51927;49.080;19.652;2022-09-12T00:01:21;94498.38;;;21.92;41.76
65127;BME280;51927;49.080;19.652;2022-09-12T00:01:26;94503.69;;;21.92;41.88
65127;BME280;51927;49.080;19.652;2022-09-12T00:01:31;94504.81;;;21.91;41.75
65127;BME280;51927;49.080;19.652;2022-09-12T00:01:37;94499.16;;;21.92;41.77
65127;BME280;51927;49.080;19.652;2022-09-12T00:01:42;94509.84;;;21.92;41.76
65127;BME280;51927;49.080;19.652;2022-09-12T00:01:47;94502.63;;;21.93;41.68
65127;BME280;51927;49.080;19.652;2022-09-12T00:01:52;94505.59;;;21.91;41.66
65127;BME280;51927;49.080;19.652;2022-09-12T00:01:58;94506.38;;;21.92;41.90
65127;BME280;51927;49.080;19.652;2022-09-12T00:02:03;94500.25;;;21.91;41.88
65127;BME280;51927;49.080;19.652;2022-09-12T00:02:08;94500.25;;;21.91;41.73
65127;BME280;51927;49.080;19.652;2022-09-12T00:02:13;94503.69;;;21.92;41.82
65127;BME280;51927;49.080;19.652;2022-09-12T00:02:19;94503.69;;;21.92;41.59
65127;BME280;51927;49.080;19.652;2022-09-12T00:02:24;94499.47;;;21.91;41.66
65127;BME280;51927;49.080;19.652;2022-09-12T00:02:29;94502.13;;;21.91;41.68
65127;BME280;51927;49.080;19.652;2022-09-12T00:02:34;94502.91;;;21.91;41.68
65127;BME280;51927;49.080;19.652;2022-09-12T00:02:40;94502.13;;;21.91;41.95
65127;BME280;51927;49.080;19.652;2022-09-12T00:02:45;94502.91;;;21.91;41.79
65127;BME280;51927;49.080;19.652;2022-09-12T00:02:51;94499.47;;;21.91;41.55
65127;BME280;51927;49.080;19.652;2022-09-12T00:02:57;94502.91;;;21.91;41.82
65127;BME280;51927;49.080;19.652;2022-09-12T00:03:02;94502.13;;;21.91;41.66
65127;BME280;51927;49.080;19.652;2022-09-12T00:03:08;94502.13;;;21.91;41.84
65127;BME280;51927;49.080;19.652;2022-09-12T00:03:13;94502.13;;;21.91;42.03
65127;BME280;51927;49.080;19.652;2022-09-12T00:03:18;94498.38;;;21.92;41.67
65127;BME280;51927;49.080;19.652;2022-09-12T00:03:23;94503.22;;;21.90;41.86
65127;BME280;51927;49.080;19.652;2022-09-12T00:03:29;94501.38;;;21.90;41.90
65127;BME280;51927;49.080;19.652;2022-09-12T00:03:34;94504.81;;;21.91;41.88
65127;BME280;51927;49.080;19.652;2022-09-12T00:03:39;94502.13;;;21.91;42.08
65127;BME280;51927;49.080;19.652;2022-09-12T00:03:45;94502.91;;;21.91;41.76
65127;BME280;51927;49.080;19.652;2022-09-12T00:03:51;94502.13;;;21.91;41.99
65127;BME280;51927;49.080;19.652;2022-09-12T00:03:58;94498.69;;;21.90;41.72
65127;BME280;51927;49.080;19.652;2022-09-12T00:04:03;94506.69;;;21.90;41.78
65127;BME280;51927;49.080;19.652;2022-09-12T00:04:09;94501.38;;;21.90;42.16
65127;BME280;51927;49.080;19.652;2022-09-12T00:04:14;94500.56;;;21.90;41.80
65127;BME280;51927;49.080;19.652;2022-09-12T00:04:19;94502.13;;;21.91;41.78
65127;BME280;51927;49.080;19.652;2022-09-12T00:04:25;94504.81;;;21.91;41.73
65127;BME280;51927;49.080;19.652;2022-09-12T00:04:31;94504.81;;;21.91;41.98
65127;BME280;51927;49.080;19.652;2022-09-12T00:04:37;94506.69;;;21.90;41.73
65127;BME280;51927;49.080;19.652;2022-09-12T00:04:42;94507.47;;;21.91;41.69
65127;BME280;51927;49.080;19.652;2022-09-12T00:04:47;94506.69;;;21.90;41.73
65127;BME280;51927;49.080;19.652;2022-09-12T00:04:52;94500.56;;;21.90;41.70
65127;BME280;51927;49.080;19.652;2022-09-12T00:04:58;94510.13;;;21.91;41.82
65127;BME280;51927;49.080;19.652;2022-09-12T00:05:04;94504.81;;;21.91;41.84
65127;BME280;51927;49.080;19.652;2022-09-12T00:05:11;94508.56;;;21.90;41.95
65127;BME280;51927;49.080;19.652;2022-09-12T00:05:17;94509.34;;;21.90;41.64
65127;BME280;51927;49.080;19.652;2022-09-12T00:05:22;94506.69;;;21.90;42.00
65127;BME280;51927;49.080;19.652;2022-09-12T00:05:27;94504.03;;;21.90;41.67
65127;BME280;51927;49.080;19.652;2022-09-12T00:05:33;94504.03;;;21.90;41.70
65127;BME280;51927;49.080;19.652;2022-09-12T00:05:42;94502.13;;;21.91;41.85
65127;BME280;51927;49.080;19.652;2022-09-12T00:05:48;94507.47;;;21.91;41.94
65127;BME280;51927;49.080;19.652;2022-09-12T00:05:53;94502.13;;;21.91;41.83
65127;BME280;51927;49.080;19.652;2022-09-12T00:05:58;94504.81;;;21.91;41.96
65127;BME280;51927;49.080;19.652;2022-09-12T00:06:08;94506.69;;;21.90;41.89
65127;BME280;51927;49.080;19.652;2022-09-12T00:06:15;94505.88;;;21.90;41.93
65127;BME280;51927;49.080;19.652;2022-09-12T00:06:22;94502.44;;;21.89;41.75
65127;BME280;51927;49.080;19.652;2022-09-12T00:06:29;94505.09;;;21.89;41.85
65127;BME280;51927;49.080;19.652;2022-09-12T00:06:35;94502.13;;;21.91;41.72
65127;BME280;51927;49.080;19.652;2022-09-12T00:06:41;94502.44;;;21.89;41.88
65127;BME280;51927;49.080;19.652;2022-09-12T00:06:46;94501.38;;;21.90;41.62
65127;BME280;51927;49.080;19.652;2022-09-12T00:06:52;94501.66;;;21.89;41.71
65127;BME280;51927;49.080;19.652;2022-09-12T00:06:57;94505.88;;;21.90;41.95
65127;BME280;51927;49.080;19.652;2022-09-12T00:07:03;94505.88;;;21.90;41.64
65127;BME280;51927;49.080;19.652;2022-09-12T00:07:08;94496.34;;;21.89;41.76
65127;BME280;51927;49.080;19.652;2022-09-12T00:07:13;94505.09;;;21.89;41.66
65127;BME280;51927;49.080;19.652;2022-09-12T00:07:18;94500.56;;;21.90;41.89
65127;BME280;51927;49.080;19.652;2022-09-12T00:07:24;94504.31;;;21.89;41.88
65127;BME280;51927;49.080;19.652;2022-09-12T00:07:29;94502.44;;;21.89;41.76
65127;BME280;51927;49.080;19.652;2022-09-12T00:07:34;94500.56;;;21.90;41.89
65127;BME280;51927;49.080;19.652;2022-09-12T00:07:39;94499.78;;;21.89;41.64
65127;BME280;51927;49.080;19.652;2022-09-12T00:07:44;94505.09;;;21.89;41.88
65127;BME280;51927;49.080;19.652;2022-09-12T00:07:50;94505.09;;;21.89;41.76
65127;BME280;51927;49.080;19.652;2022-09-12T00:07:55;94502.44;;;21.89;41.65
65127;BME280;51927;49.080;19.652;2022-09-12T00:08:00;94506.69;;;21.90;41.89
65127;BME280;51927;49.080;19.652;2022-09-12T00:08:05;94505.09;;;21.89;41.78
65127;BME280;51927;49.080;19.652;2022-09-12T00:08:10;94505.09;;;21.89;41.76
65127;BME280;51927;49.080;19.652;2022-09-12T00:08:16;94507.00;;;21.89;41.95
65127;BME280;51927;49.080;19.652;2022-09-12T00:08:21;94499.00;;;21.89;41.71
65127;BME280;51927;49.080;19.652;2022-09-12T00:08:26;94504.31;;;21.89;41.84
65127;BME280;51927;49.080;19.652;2022-09-12T00:08:31;94510.44;;;21.89;41.92
65127;BME280;51927;49.080;19.652;2022-09-12T00:08:37;94505.09;;;21.89;41.97
65127;BME280;51927;49.080;19.652;2022-09-12T00:08:42;94504.31;;;21.89;41.79
65127;BME280;51927;49.080;19.652;2022-09-12T00:08:47;94500.84;;;21.88;41.71
65127;BME280;51927;49.080;19.652;2022-09-12T00:08:53;94505.09;;;21.89;41.78
65127;BME280;51927;49.080;19.652;2022-09-12T00:09:00;94502.75;;;21.88;41.77
65127;BME280;51927;49.080;19.652;2022-09-12T00:09:07;94501.66;;;21.89;41.78
65127;BME280;51927;49.080;19.652;2022-09-12T00:09:12;94498.19;;;21.88;42.00
65127;BME280;51927;49.080;19.652;2022-09-12T00:09:18;94507.00;;;21.89;41.86
65127;BME280;51927;49.080;19.652;2022-09-12T00:09:23;94504.31;;;21.89;41.92
65127;BME280;51927;49.080;19.652;2022-09-12T00:09:28;94505.88;;;21.90;41.92
65127;BME280;51927;49.080;19.652;2022-09-12T00:09:33;94501.66;;;21.89;41.89
65127;BME280;51927;49.080;19.652;2022-09-12T00:09:38;94499.00;;;21.89;41.90
65127;BME280;51927;49.080;19.652;2022-09-12T00:09:44;94510.44;;;21.89;41.80
65127;BME280;51927;49.080;19.652;2022-09-12T00:09:49;94500.84;;;21.88;41.73
65127;BME280;51927;49.080;19.652;2022-09-12T00:09:54;94499.78;;;21.89;41.77
65127;BME280;51927;49.080;19.652;2022-09-12T00:09:59;94507.78;;;21.89;41.88
65127;BME280;51927;49.080;19.652;2022-09-12T00:10:05;94503.53;;;21.88;41.65
65127;BME280;51927;49.080;19.652;2022-09-12T00:10:10;94507.00;;;21.89;41.96
65127;BME280;51927;49.080;19.652;2022-09-12T00:10:15;94503.53;;;21.88;41.81
65127;BME280;51927;49.080;19.652;2022-09-12T00:10:21;94508.84;;;21.88;41.96
65127;BME280;51927;49.080;19.652;2022-09-12T00:10:26;94502.75;;;21.88;41.88
65127;BME280;51927;49.080;19.652;2022-09-12T00:10:31;94506.19;;;21.88;41.90
65127;BME280;51927;49.080;19.652;2022-09-12T00:10:37;94506.19;;;21.88;41.64
65127;BME280;51927;49.080;19.652;2022-09-12T00:10:43;94503.53;;;21.88;41.64
65127;BME280;51927;49.080;19.652;2022-09-12T00:10:49;94504.31;;;21.89;41.80
65127;BME280;51927;49.080;19.652;2022-09-12T00:10:54;94504.31;;;21.89;41.70
65127;BME280;51927;49.080;19.652;2022-09-12T00:11:03;94502.75;;;21.88;41.74
65127;BME280;51927;49.080;19.652;2022-09-12T00:11:09;94506.19;;;21.88;41.57
65127;BME280;51927;49.080;19.652;2022-09-12T00:11:14;94508.84;;;21.88;41.87
65127;BME280;51927;49.080;19.652;2022-09-12T00:11:20;94503.53;;;21.88;41.84
65127;BME280;51927;49.080;19.652;2022-09-12T00:11:25;94501.97;;;21.87;41.86
65127;BME280;51927;49.080;19.652;2022-09-12T00:11:30;94508.06;;;21.88;41.78
65127;BME280;51927;49.080;19.652;2022-09-12T00:11:36;94504.63;;;21.87;41.67
65127;BME280;51927;49.080;19.652;2022-09-12T00:11:43;94508.84;;;21.88;41.71
65127;BME280;51927;49.080;19.652;2022-09-12T00:11:48;94508.06;;;21.88;41.66
65127;BME280;51927;49.080;19.652;2022-09-12T00:11:53;94502.75;;;21.88;41.87
65127;BME280;51927;49.080;19.652;2022-09-12T00:11:59;94503.53;;;21.88;41.78
65127;BME280;51927;49.080;19.652;2022-09-12T00:12:04;94503.53;;;21.88;41.83
65127;BME280;51927;49.080;19.652;2022-09-12T00:12:09;94508.06;;;21.88;41.71
65127;BME280;51927;49.080;19.652;2022-09-12T00:12:14;94509.66;;;21.89;41.73
65127;BME280;51927;49.080;19.652;2022-09-12T00:12:19;94511.81;;;21.87;41.96
65127;BME280;51927;49.080;19.652;2022-09-12T00:12:25;94500.06;;;21.88;42.01
65127;BME280;51927;49.080;19.652;2022-09-12T00:12:30;94508.06;;;21.88;41.86
65127;BME280;51927;49.080;19.652;2022-09-12T00:12:35;94507.28;;;21.87;41.78
65127;BME280;51927;49.080;19.652;2022-09-12T00:12:40;94502.75;;;21.88;41.88
65127;BME280;51927;49.080;19.652;2022-09-12T00:12:45;94508.84;;;21.88;42.03
65127;BME280;51927;49.080;19.652;2022-09-12T00:12:51;94506.19;;;21.88;41.86
65127;BME280;51927;49.080;19.652;2022-09-12T00:12:56;94504.63;;;21.87;41.79
65127;BME280;51927;49.080;19.652;2022-09-12T00:13:01;94501.97;;;21.87;41.81
65127;BME280;51927;49.080;19.652;2022-09-12T00:13:07;94506.50;;;21.87;41.88
65127;BME280;51927;49.080;19.652;2022-09-12T00:13:12;94507.28;;;21.87;41.70
65127;BME280;51927;49.080;19.652;2022-09-12T00:13:17;94506.19;;;21.88;41.67
65127;BME280;51927;49.080;19.652;2022-09-12T00:13:22;94502.75;;;21.88;41.91
65127;BME280;51927;49.080;19.652;2022-09-12T00:13:28;94508.06;;;21.88;41.64
65127;BME280;51927;49.080;19.652;2022-09-12T00:13:33;94501.16;;;21.87;41.92
65127;BME280;51927;49.080;19.652;2022-09-12T00:13:39;94505.41;;;21.88;41.85
65127;BME280;51927;49.080;19.652;2022-09-12T00:13:45;94505.41;;;21.88;41.80
65127;BME280;51927;49.080;19.652;2022-09-12T00:13:50;94503.81;;;21.87;41.68
65127;BME280;51927;49.080;19.652;2022-09-12T00:13:59;94501.97;;;21.87;41.70
65127;BME280;51927;49.080;19.652;2022-09-12T00:14:04;94495.81;;;21.87;41.85
65127;BME280;51927;49.080;19.652;2022-09-12T00:14:11;94501.97;;;21.87;41.65
65127;BME280;51927;49.080;19.652;2022-09-12T00:14:17;94504.63;;;21.87;41.65
65127;BME280;51927;49.080;19.652;2022-09-12T00:14:22;94506.50;;;21.87;41.70
65127;BME280;51927;49.080;19.652;2022-09-12T00:14:27;94504.63;;;21.87;41.88
65127;BME280;51927;49.080;19.652;2022-09-12T00:14:33;94505.72;;;21.86;41.92
65127;BME280;51927;49.080;19.652;2022-09-12T00:14:38;94511.81;;;21.87;41.75
65127;BME280;51927;49.080;19.652;2022-09-12T00:14:43;94506.50;;;21.87;41.86
65127;BME280;51927;49.080;19.652;2022-09-12T00:14:48;94508.84;;;21.88;41.89
65127;BME280;51927;49.080;19.652;2022-09-12T00:14:53;94506.50;;;21.87;41.70
65127;BME280;51927;49.080;19.652;2022-09-12T00:14:59;94503.81;;;21.87;41.83
65127;BME280;51927;49.080;19.652;2022-09-12T00:15:04;94509.16;;;21.87;41.92
65127;BME280;51927;49.080;19.652;2022-09-12T00:15:10;94509.97;;;21.87;41.81
65127;BME280;51927;49.080;19.652;2022-09-12T00:15:15;94505.72;;;21.86;41.71
65127;BME280;51927;49.080;19.652;2022-09-12T00:15:20;94501.16;;;21.87;41.66
65127;BME280;51927;49.080;19.652;2022-09-12T00:15:26;94509.16;;;21.87;41.88
65127;BME280;51927;49.080;19.652;2022-09-12T00:15:31;94511.81;;;21.87;41.77
65127;BME280;51927;49.080;19.652;2022-09-12T00:15:37;94511.03;;;21.86;41.73
65127;BME280;51927;49.080;19.652;2022-09-12T00:15:42;94499.59;;;21.86;41.69
65127;BME280;51927;49.080;19.652;2022-09-12T00:15:48;94499.59;;;21.86;41.72
65127;BME280;51927;49.080;19.652;2022-09-12T00:15:53;94509.16;;;21.87;41.83
65127;BME280;51927;49.080;19.652;2022-09-12T00:15:58;94499.59;;;21.86;41.67
65127;BME280;51927;49.080;19.652;2022-09-12T00:16:03;94501.16;;;21.87;41.91
65127;BME280;51927;49.080;19.652;2022-09-12T00:16:14;94501.16;;;21.87;41.93
65127;BME280;51927;49.080;19.652;2022-09-12T00:16:21;94511.81;;;21.87;41.83
65127;BME280;51927;49.080;19.652;2022-09-12T00:16:27;94505.72;;;21.86;41.99
65127;BME280;51927;49.080;19.652;2022-09-12T00:16:34;94506.50;;;21.87;41.80
65127;BME280;51927;49.080;19.652;2022-09-12T00:16:40;94505.72;;;21.86;41.94
65127;BME280;51927;49.080;19.652;2022-09-12T00:16:46;94505.72;;;21.86;41.77
65127;BME280;51927;49.080;19.652;2022-09-12T00:16:51;94502.25;;;21.86;41.88
65127;BME280;51927;49.080;19.652;2022-09-12T00:16:57;94497.72;;;21.86;41.84
65127;BME280;51927;49.080;19.652;2022-09-12T00:17:03;94504.94;;;21.86;41.88
65127;BME280;51927;49.080;19.652;2022-09-12T00:17:08;94504.94;;;21.86;41.88
65127;BME280;51927;49.080;19.652;2022-09-12T00:17:13;94511.03;;;21.86;41.68
65127;BME280;51927;49.080;19.652;2022-09-12T00:17:19;94501.16;;;21.87;42.06
65127;BME280;51927;49.080;19.652;2022-09-12T00:17:24;94506.50;;;21.87;41.73
65127;BME280;51927;49.080;19.652;2022-09-12T00:17:29;94500.38;;;21.86;41.72
65127;BME280;51927;49.080;19.652;2022-09-12T00:17:34;94509.16;;;21.87;41.86
65127;BME280;51927;49.080;19.652;2022-09-12T00:17:40;94501.16;;;21.87;41.93
65127;BME280;51927;49.080;19.652;2022-09-12T00:17:45;94505.72;;;21.86;41.80
65127;BME280;51927;49.080;19.652;2022-09-12T00:17:50;94504.94;;;21.86;41.87
65127;BME280;51927;49.080;19.652;2022-09-12T00:17:55;94504.63;;;21.87;41.78
65127;BME280;51927;49.080;19.652;2022-09-12T00:18:01;94509.16;;;21.87;41.81
65127;BME280;51927;49.080;19.652;2022-09-12T00:18:07;94501.97;;;21.87;41.83
65127;BME280;51927;49.080;19.652;2022-09-12T00:18:14;94501.16;;;21.87;41.93
65127;BME280;51927;49.080;19.652;2022-09-12T00:18:20;94501.16;;;21.87;41.80
65127;BME280;51927;49.080;19.652;2022-09-12T00:18:25;94506.50;;;21.87;41.83
65127;BME280;51927;49.080;19.652;2022-09-12T00:18:30;94502.25;;;21.86;41.82
65127;BME280;51927;49.080;19.652;2022-09-12T00:18:36;94503.81;;;21.87;41.83
65127;BME280;51927;49.080;19.652;2022-09-12T00:18:41;94501.97;;;21.87;41.83
65127;BME280;51927;49.080;19.652;2022-09-12T00:18:46;94503.81;;;21.87;41.83
65127;BME280;51927;49.080;19.652;2022-09-12T00:18:52;94498.50;;;21.87;42.01
65127;BME280;51927;49.080;19.652;2022-09-12T00:18:58;94501.16;;;21.87;41.74
65127;BME280;51927;49.080;19.652;2022-09-12T00:19:03;94503.81;;;21.87;41.94
65127;BME280;51927;49.080;19.652;2022-09-12T00:19:09;94501.97;;;21.87;41.97
65127;BME280;51927;49.080;19.652;2022-09-12T00:19:14;94501.97;;;21.87;41.90
65127;BME280;51927;49.080;19.652;2022-09-12T00:19:19;94507.28;;;21.87;41.67
65127;BME280;51927;49.080;19.652;2022-09-12T00:19:25;94502.75;;;21.88;41.90
65127;BME280;51927;49.080;19.652;2022-09-12T00:19:31;94503.81;;;21.87;41.84
65127;BME280;51927;49.080;19.652;2022-09-12T00:19:36;94501.97;;;21.87;41.72
65127;BME280;51927;49.080;19.652;2022-09-12T00:19:41;94506.50;;;21.87;41.70
65127;BME280;51927;49.080;19.652;2022-09-12T00:19:46;94501.97;;;21.87;41.87
65127;BME280;51927;49.080;19.652;2022-09-12T00:19:52;94506.50;;;21.87;41.85
65127;BME280;51927;49.080;19.652;2022-09-12T00:19:57;94507.28;;;21.87;41.94
65127;BME280;51927;49.080;19.652;2022-09-12T00:20:03;94506.50;;;21.87;41.61
65127;BME280;51927;49.080;19.652;2022-09-12T00:20:10;94503.81;;;21.87;42.13
65127;BME280;51927;49.080;19.652;2022-09-12T00:20:16;94502.25;;;21.86;41.84
65127;BME280;51927;49.080;19.652;2022-09-12T00:20:21;94503.81;;;21.87;41.88
65127;BME280;51927;49.080;19.652;2022-09-12T00:20:26;94506.50;;;21.87;41.87
65127;BME280;51927;49.080;19.652;2022-09-12T00:20:31;94510.75;;;21.88;41.78
65127;BME280;51927;49.080;19.652;2022-09-12T00:20:40;94508.06;;;21.88;41.88
65127;BME280;51927;49.080;19.652;2022-09-12T00:20:46;94508.06;;;21.88;41.90
65127;BME280;51927;49.080;19.652;2022-09-12T00:20:51;94511.81;;;21.87;41.85
65127;BME280;51927;49.080;19.652;2022-09-12T00:20:56;94509.16;;;21.87;41.86
65127;BME280;51927;49.080;19.652;2022-09-12T00:21:05;94509.16;;;21.87;41.61
65127;BME280;51927;49.080;19.652;2022-09-12T00:21:10;94509.97;;;21.87;41.65
65127;BME280;51927;49.080;19.652;2022-09-12T00:21:16;94513.41;;;21.88;41.85
65127;BME280;51927;49.080;19.652;2022-09-12T00:21:22;94500.38;;;21.86;41.84
65127;BME280;51927;49.080;19.652;2022-09-12T00:21:27;94509.97;;;21.87;41.85
65127;BME280;51927;49.080;19.652;2022-09-12T00:21:33;94503.03;;;21.86;41.91
65127;BME280;51927;49.080;19.652;2022-09-12T00:21:39;94507.59;;;21.86;41.72
65127;BME280;51927;49.080;19.652;2022-09-12T00:21:44;94510.25;;;21.86;41.76
65127;BME280;51927;49.080;19.652;2022-09-12T00:21:49;94504.94;;;21.86;41.69
65127;BME280;51927;49.080;19.652;2022-09-12T00:21:55;94510.25;;;21.86;41.74
65127;BME280;51927;49.080;19.652;2022-09-12T00:22:00;94509.16;;;21.87;41.81
65127;BME280;51927;49.080;19.652;2022-09-12T00:22:06;94503.81;;;21.87;41.66
65127;BME280;51927;49.080;19.652;2022-09-12T00:22:11;94510.25;;;21.86;41.68
65127;BME280;51927;49.080;19.652;2022-09-12T00:22:17;94510.25;;;21.86;41.87
65127;BME280;51927;49.080;19.652;2022-09-12T00:22:22;94509.16;;;21.87;41.61
65127;BME280;51927;49.080;19.652;2022-09-12T00:22:27;94500.38;;;21.86;41.47
65127;BME280;51927;49.080;19.652;2022-09-12T00:22:32;94506.50;;;21.87;41.87
65127;BME280;51927;49.080;19.652;2022-09-12T00:22:38;94504.94;;;21.86;41.65
65127;BME280;51927;49.080;19.652;2022-09-12T00:22:43;94504.94;;;21.86;41.84
65127;BME280;51927;49.080;19.652;2022-09-12T00:22:49;94503.03;;;21.86;41.85
65127;BME280;51927;49.080;19.652;2022-09-12T00:22:54;94510.25;;;21.86;41.74
65127;BME280;51927;49.080;19.652;2022-09-12T00:22:59;94509.44;;;21.85;41.66
65127;BME280;51927;49.080;19.652;2022-09-12T00:23:04;94506.78;;;21.85;41.73
65127;BME280;51927;49.080;19.652;2022-09-12T00:23:10;94507.59;;;21.86;41.62
65127;BME280;51927;49.080;19.652;2022-09-12T00:23:15;94509.44;;;21.85;41.78
65127;BME280;51927;49.080;19.652;2022-09-12T00:23:20;94512.94;;;21.86;41.68
65127;BME280;51927;49.080;19.652;2022-09-12T00:23:26;94515.59;;;21.86;41.76
65127;BME280;51927;49.080;19.652;2022-09-12T00:23:31;94510.25;;;21.86;41.64
65127;BME280;51927;49.080;19.652;2022-09-12T00:23:37;94508.38;;;21.86;41.78
65127;BME280;51927;49.080;19.652;2022-09-12T00:23:42;94506.00;;;21.85;41.91
65127;BME280;51927;49.080;19.652;2022-09-12T00:23:47;94515.59;;;21.86;41.95
65127;BME280;51927;49.080;19.652;2022-09-12T00:23:53;94512.94;;;21.86;41.73
65127;BME280;51927;49.080;19.652;2022-09-12T00:23:58;94514.78;;;21.85;41.69
65127;BME280;51927;49.080;19.652;2022-09-12T00:24:04;94511.34;;;21.85;41.85
65127;BME280;51927;49.080;19.652;2022-09-12T00:24:09;94515.59;;;21.86;41.97
65127;BME280;51927;49.080;19.652;2022-09-12T00:24:15;94508.69;;;21.85;41.66
65127;BME280;51927;49.080;19.652;2022-09-12T00:24:21;94509.44;;;21.85;41.78
65127;BME280;51927;49.080;19.652;2022-09-12T00:24:26;94506.78;;;21.85;41.72
65127;BME280;51927;49.080;19.652;2022-09-12T00:24:32;94508.69;;;21.85;41.71
65127;BME280;51927;49.080;19.652;2022-09-12T00:24:38;94513.22;;;21.84;41.80
65127;BME280;51927;49.080;19.652;2022-09-12T00:24:44;94514.00;;;21.85;41.79
65127;BME280;51927;49.080;19.652;2022-09-12T00:24:50;94514.78;;;21.85;41.71
65127;BME280;51927;49.080;19.652;2022-09-12T00:24:55;94508.69;;;21.85;41.79
65127;BME280;51927;49.080;19.652;2022-09-12T00:25:00;94513.22;;;21.84;42.00
65127;BME280;51927;49.080;19.652;2022-09-12T00:25:06;94514.00;;;21.85;41.91
65127;BME280;51927;49.080;19.652;2022-09-12T00:25:11;94508.69;;;21.85;41.85
65127;BME280;51927;49.080;19.652;2022-09-12T00:25:16;94511.34;;;21.85;41.63
65127;BME280;51927;49.080;19.652;2022-09-12T00:25:21;94508.69;;;21.85;41.88
65127;BME280;51927;49.080;19.652;2022-09-12T00:25:27;94513.22;;;21.84;41.72
65127;BME280;51927;49.080;19.652;2022-09-12T00:25:39;94516.69;;;21.85;41.79
65127;BME280;51927;49.080;19.652;2022-09-12T00:25:46;94516.69;;;21.85;41.81
65127;BME280;51927;49.080;19.652;2022-09-12T00:25:52;94516.69;;;21.85;41.69
65127;BME280;51927;49.080;19.652;2022-09-12T00:25:57;94513.22;;;21.84;41.72
65127;BME280;51927;49.080;19.652;2022-09-12T00:26:05;94514.00;;;21.85;41.74
65127;BME280;51927;49.080;19.652;2022-09-12T00:26:11;94514.00;;;21.85;41.74
65127;BME280;51927;49.080;19.652;2022-09-12T00:26:17;94511.34;;;21.85;41.88
65127;BME280;51927;49.080;19.652;2022-09-12T00:26:23;94514.00;;;21.85;41.98
65127;BME280;51927;49.080;19.652;2022-09-12T00:26:28;94512.41;;;21.84;41.79
65127;BME280;51927;49.080;19.652;2022-09-12T00:26:34;94521.22;;;21.84;41.78
65127;BME280;51927;49.080;19.652;2022-09-12T00:26:39;94519.34;;;21.85;41.81
65127;BME280;51927;49.080;19.652;2022-09-12T00:26:44;94514.78;;;21.85;41.75
65127;BME280;51927;49.080;19.652;2022-09-12T00:26:50;94515.09;;;21.84;41.75
65127;BME280;51927;49.080;19.652;2022-09-12T00:26:55;94512.41;;;21.84;41.79
65127;BME280;51927;49.080;19.652;2022-09-12T00:27:00;94512.41;;;21.84;41.82
65127;BME280;51927;49.080;19.652;2022-09-12T00:27:05;94518.56;;;21.84;41.72
65127;BME280;51927;49.080;19.652;2022-09-12T00:27:11;94517.75;;;21.84;41.96
65127;BME280;51927;49.080;19.652;2022-09-12T00:27:16;94514.00;;;21.85;41.88
65127;BME280;51927;49.080;19.652;2022-09-12T00:27:21;94514.00;;;21.85;41.88
65127;BME280;51927;49.080;19.652;2022-09-12T00:27:26;94518.56;;;21.84;41.83
65127;BME280;51927;49.080;19.652;2022-09-12T00:27:32;94517.75;;;21.84;41.75
65127;BME280;51927;49.080;19.652;2022-09-12T00:27:37;94509.75;;;21.84;41.89
65127;BME280;51927;49.080;19.652;2022-09-12T00:27:42;94514.00;;;21.85;41.79
65127;BME280;51927;49.080;19.652;2022-09-12T00:27:47;94509.75;;;21.84;41.81
65127;BME280;51927;49.080;19.652;2022-09-12T00:27:52;94512.41;;;21.84;41.59
65127;BME280;51927;49.080;19.652;2022-09-12T00:27:57;94515.09;;;21.84;41.74
65127;BME280;51927;49.080;19.652;2022-09-12T00:28:03;94518.56;;;21.84;41.63
65127;BME280;51927;49.080;19.652;2022-09-12T00:28:08;94518.56;;;21.84;41.62
65127;BME280;51927;49.080;19.652;2022-09-12T00:28:14;94515.91;;;21.84;41.91
65127;BME280;51927;49.080;19.652;2022-09-12T00:28:20;94521.22;;;21.84;41.83
65127;BME280;51927;49.080;19.652;2022-09-12T00:28:25;94522.00;;;21.85;41.88
65127;BME280;51927;49.080;19.652;2022-09-12T00:28:35;94512.41;;;21.84;41.86
65127;BME280;51927;49.080;19.652;2022-09-12T00:28:40;94521.22;;;21.84;41.74
65127;BME280;51927;49.080;19.652;2022-09-12T00:28:46;94519.34;;;21.85;41.59
65127;BME280;51927;49.080;19.652;2022-09-12T00:28:51;94515.91;;;21.84;41.66
65127;BME280;51927;49.080;19.652;2022-09-12T00:28:56;94516.69;;;21.85;41.80
65127;BME280;51927;49.080;19.652;2022-09-12T00:29:02;94515.09;;;21.84;41.73
65127;BME280;51927;49.080;19.652;2022-09-12T00:29:07;94512.41;;;21.84;41.75
65127;BME280;51927;49.080;19.652;2022-09-12T00:29:19;94513.22;;;21.84;41.85
65127;BME280;51927;49.080;19.652;2022-09-12T00:29:25;94518.56;;;21.84;41.67
65127;BME280;51927;49.080;19.652;2022-09-12T00:29:30;94518.56;;;21.84;41.65
65127;BME280;51927;49.080;19.652;2022-09-12T00:29:35;94512.41;;;21.84;41.74
65127;BME280;51927;49.080;19.652;2022-09-12T00:29:40;94511.34;;;21.85;41.72